Windom, MN

8:37 AM CST on December 21, 2014 (GMT -0600)
Windom Municipal | Change Station
CLOSE
Current Station
Airport
Location: Windom,
Elevation: 1411 ft
Nearby Weather Stations
Active Advisory: Special Statement

Elev 1411 ft 43.91 °N, 95.11 °W | Updated 23 minutes ago

Fog
Fog
34 °F
Feels Like 26 °F
N
10
Wind Variable Wind from South

Today
High -- | Low -- °F
--% Chance of Precip.
Yesterday
High -- | Low -- °F
Precip. -- in
7:51 AM 4:45 PM
Waning Crescent, 0% visible
Pressure 29.80 in
Visibility 1.5 miles
Clouds Overcast 200 ft
Windchill 26 °F
Dew Point 34 °F
Humidity 100%
Rainfall 0.00 in
Snow Depth Not available.
UV 0 out of 12
Pollen .10 out of 12
Air Quality Not available.
Flu Activity Not available.
METAR KMWM 211414Z AUTO 18009KT 1 1/2SM BR OVC002 01/01 A2980 RMK AO2

More Conditions Fewer Conditions

Pressure 29.80 in
Visibility 1.5 miles
Clouds Overcast 200 ft
Windchill 26 °F
Dew Point 34 °F
Humidity 100%
Rainfall 0.00 in
Snow Depth Not available.
UV 0 out of 12
Pollen .10 out of 12
Air Quality Not available.
Flu Activity Not available.
METAR KMWM 211414Z AUTO 18009KT 1 1/2SM BR OVC002 01/01 A2980 RMK AO2

More Conditions Fewer Conditions

10-Day Weather Forecast

Almanac

Astronomy

Dec. 21, 2014 Rise Set
Actual Time
Civil Twilight
Nautical Twilight
Astronomical Twilight
Moon
Length of Visible Light
Length of Day
Tomorrow will be .
, % of the Moon is Illuminated

Today's Extremes

State Highs State Lows

Community

WunderPhotos

Upload Photos

1,779,395 photos uploaded!

WunderBlogs® & News

Nearby

Air Quality

  Air Quality AQ Index Pollutant
Not available.

Snow Depth

Station Depth Elevation

Earthquake Activity

City Distance Mag. Time & Date
Minimum magnitude displayed is 2.5.

Coastal Water Temperatures

Place Temperature

Nearby Weather Stations